sensor_id;sensor_type;location;lat;lon;timestamp;P1;durP1;ratioP1;P2;durP2;ratioP2
69532;SDS011;56729;52.036;5.332;2022-09-09T00:00:34;8.07;;;2.63;;
69532;SDS011;56729;52.036;5.332;2022-09-09T00:03:22;14.18;;;4.07;;
69532;SDS011;56729;52.036;5.332;2022-09-09T00:04:28;18.33;;;3.33;;
69532;SDS011;56729;52.036;5.332;2022-09-09T00:05:44;12.73;;;3.83;;
69532;SDS011;56729;52.036;5.332;2022-09-09T00:07:55;11.02;;;3.33;;
69532;SDS011;56729;52.036;5.332;2022-09-09T00:09:06;14.65;;;4.30;;
69532;SDS011;56729;52.036;5.332;2022-09-09T00:10:26;18.15;;;4.03;;
69532;SDS011;56729;52.036;5.332;2022-09-09T00:12:14;13.68;;;3.80;;
69532;SDS011;56729;52.036;5.332;2022-09-09T00:14:18;11.32;;;4.10;;
69532;SDS011;56729;52.036;5.332;2022-09-09T00:15:41;16.05;;;4.25;;
69532;SDS011;56729;52.036;5.332;2022-09-09T00:16:56;17.80;;;4.50;;
69532;SDS011;56729;52.036;5.332;2022-09-09T00:19:41;13.90;;;3.97;;
69532;SDS011;56729;52.036;5.332;2022-09-09T00:21:08;19.63;;;4.90;;
69532;SDS011;56729;52.036;5.332;2022-09-09T00:22:18;16.73;;;4.30;;
69532;SDS011;56729;52.036;5.332;2022-09-09T00:23:28;15.88;;;4.38;;
69532;SDS011;56729;52.036;5.332;2022-09-09T00:24:39;9.68;;;3.78;;
69532;SDS011;56729;52.036;5.332;2022-09-09T00:25:54;16.30;;;4.40;;
69532;SDS011;56729;52.036;5.332;2022-09-09T00:27:08;12.70;;;4.55;;
69532;SDS011;56729;52.036;5.332;2022-09-09T00:28:25;16.27;;;4.13;;
69532;SDS011;56729;52.036;5.332;2022-09-09T00:29:30;13.53;;;4.37;;
69532;SDS011;56729;52.036;5.332;2022-09-09T00:30:42;16.50;;;4.38;;
69532;SDS011;56729;52.036;5.332;2022-09-09T00:31:44;22.48;;;5.40;;
69532;SDS011;56729;52.036;5.332;2022-09-09T00:32:54;12.07;;;4.93;;
69532;SDS011;56729;52.036;5.332;2022-09-09T00:34:11;23.33;;;5.38;;
69532;SDS011;56729;52.036;5.332;2022-09-09T00:36:21;12.85;;;4.68;;
69532;SDS011;56729;52.036;5.332;2022-09-09T00:37:29;21.65;;;4.85;;
69532;SDS011;56729;52.036;5.332;2022-09-09T00:38:34;23.55;;;5.72;;
69532;SDS011;56729;52.036;5.332;2022-09-09T00:39:41;20.15;;;6.53;;
69532;SDS011;56729;52.036;5.332;2022-09-09T00:40:50;37.40;;;7.00;;
69532;SDS011;56729;52.036;5.332;2022-09-09T00:45:41;16.48;;;4.78;;
69532;SDS011;56729;52.036;5.332;2022-09-09T00:48:08;21.48;;;6.10;;
69532;SDS011;56729;52.036;5.332;2022-09-09T00:52:05;16.13;;;5.63;;
69532;SDS011;56729;52.036;5.332;2022-09-09T00:53:24;18.67;;;4.70;;
69532;SDS011;56729;52.036;5.332;2022-09-09T00:56:14;12.65;;;5.00;;
69532;SDS011;56729;52.036;5.332;2022-09-09T00:57:25;16.25;;;4.68;;
69532;SDS011;56729;52.036;5.332;2022-09-09T00:58:29;22.95;;;4.90;;
69532;SDS011;56729;52.036;5.332;2022-09-09T01:01:21;17.95;;;5.15;;
69532;SDS011;56729;52.036;5.332;2022-09-09T01:02:30;18.58;;;5.32;;
69532;SDS011;56729;52.036;5.332;2022-09-09T01:03:42;25.70;;;5.60;;
69532;SDS011;56729;52.036;5.332;2022-09-09T01:04:54;14.25;;;4.32;;
69532;SDS011;56729;52.036;5.332;2022-09-09T01:07:20;13.82;;;4.93;;
69532;SDS011;56729;52.036;5.332;2022-09-09T01:10:27;17.55;;;4.70;;
69532;SDS011;56729;52.036;5.332;2022-09-09T01:12:00;15.40;;;4.72;;
69532;SDS011;56729;52.036;5.332;2022-09-09T01:13:24;21.67;;;5.28;;
69532;SDS011;56729;52.036;5.332;2022-09-09T01:15:36;11.88;;;4.43;;
69532;SDS011;56729;52.036;5.332;2022-09-09T01:16:42;18.73;;;5.28;;
69532;SDS011;56729;52.036;5.332;2022-09-09T01:18:51;14.70;;;4.57;;
69532;SDS011;56729;52.036;5.332;2022-09-09T01:20:01;17.58;;;5.18;;
69532;SDS011;56729;52.036;5.332;2022-09-09T01:27:12;16.00;;;3.80;;
69532;SDS011;56729;52.036;5.332;2022-09-09T01:28:17;19.98;;;4.95;;
69532;SDS011;56729;52.036;5.332;2022-09-09T01:29:24;23.00;;;4.53;;
69532;SDS011;56729;52.036;5.332;2022-09-09T01:30:31;18.65;;;4.88;;
69532;SDS011;56729;52.036;5.332;2022-09-09T01:31:37;18.47;;;4.77;;
69532;SDS011;56729;52.036;5.332;2022-09-09T01:32:46;18.10;;;5.05;;
69532;SDS011;56729;52.036;5.332;2022-09-09T01:33:50;12.43;;;4.10;;
69532;SDS011;56729;52.036;5.332;2022-09-09T01:34:53;14.07;;;4.82;;
69532;SDS011;56729;52.036;5.332;2022-09-09T01:36:09;22.20;;;5.05;;
69532;SDS011;56729;52.036;5.332;2022-09-09T01:37:24;18.02;;;4.55;;
69532;SDS011;56729;52.036;5.332;2022-09-09T01:38:26;14.88;;;4.07;;
69532;SDS011;56729;52.036;5.332;2022-09-09T01:39:30;16.13;;;5.10;;
69532;SDS011;56729;52.036;5.332;2022-09-09T01:40:40;9.35;;;4.35;;
69532;SDS011;56729;52.036;5.332;2022-09-09T01:41:42;15.32;;;4.78;;
69532;SDS011;56729;52.036;5.332;2022-09-09T01:42:46;16.40;;;6.23;;
69532;SDS011;56729;52.036;5.332;2022-09-09T01:43:49;20.58;;;5.22;;
69532;SDS011;56729;52.036;5.332;2022-09-09T01:44:52;18.75;;;4.60;;
69532;SDS011;56729;52.036;5.332;2022-09-09T01:45:55;27.65;;;5.18;;
69532;SDS011;56729;52.036;5.332;2022-09-09T01:47:00;17.17;;;4.28;;
69532;SDS011;56729;52.036;5.332;2022-09-09T01:48:03;13.32;;;4.63;;
69532;SDS011;56729;52.036;5.332;2022-09-09T01:49:21;15.82;;;4.32;;
69532;SDS011;56729;52.036;5.332;2022-09-09T01:50:24;14.38;;;4.70;;
69532;SDS011;56729;52.036;5.332;2022-09-09T01:51:25;15.93;;;4.50;;
69532;SDS011;56729;52.036;5.332;2022-09-09T01:52:28;20.85;;;5.15;;
69532;SDS011;56729;52.036;5.332;2022-09-09T01:53:31;17.40;;;4.90;;
69532;SDS011;56729;52.036;5.332;2022-09-09T01:54:33;34.35;;;5.95;;
69532;SDS011;56729;52.036;5.332;2022-09-09T01:56:01;17.75;;;5.35;;
69532;SDS011;56729;52.036;5.332;2022-09-09T01:57:23;18.75;;;4.97;;
69532;SDS011;56729;52.036;5.332;2022-09-09T01:58:32;18.15;;;4.70;;
69532;SDS011;56729;52.036;5.332;2022-09-09T02:00:03;19.92;;;5.13;;
69532;SDS011;56729;52.036;5.332;2022-09-09T02:01:25;25.08;;;5.95;;
69532;SDS011;56729;52.036;5.332;2022-09-09T02:04:27;20.20;;;5.72;;
69532;SDS011;56729;52.036;5.332;2022-09-09T02:07:40;29.87;;;5.63;;
69532;SDS011;56729;52.036;5.332;2022-09-09T02:08:56;24.75;;;6.45;;
69532;SDS011;56729;52.036;5.332;2022-09-09T02:10:02;24.15;;;6.18;;
69532;SDS011;56729;52.036;5.332;2022-09-09T02:11:38;23.52;;;6.20;;
69532;SDS011;56729;52.036;5.332;2022-09-09T02:13:05;34.65;;;7.63;;
69532;SDS011;56729;52.036;5.332;2022-09-09T02:14:16;28.73;;;6.82;;
69532;SDS011;56729;52.036;5.332;2022-09-09T02:15:25;20.77;;;5.97;;
69532;SDS011;56729;52.036;5.332;2022-09-09T02:16:35;19.70;;;5.90;;
69532;SDS011;56729;52.036;5.332;2022-09-09T02:17:42;19.98;;;6.63;;
69532;SDS011;56729;52.036;5.332;2022-09-09T02:18:51;20.25;;;7.07;;
69532;SDS011;56729;52.036;5.332;2022-09-09T02:20:13;27.27;;;6.03;;
69532;SDS011;56729;52.036;5.332;2022-09-09T02:21:20;30.33;;;7.80;;
69532;SDS011;56729;52.036;5.332;2022-09-09T02:22:23;30.83;;;7.40;;
69532;SDS011;56729;52.036;5.332;2022-09-09T02:23:29;24.67;;;6.60;;
69532;SDS011;56729;52.036;5.332;2022-09-09T02:24:35;17.00;;;6.78;;
69532;SDS011;56729;52.036;5.332;2022-09-09T02:25:50;15.15;;;6.47;;
69532;SDS011;56729;52.036;5.332;2022-09-09T02:26:57;27.60;;;7.13;;
69532;SDS011;56729;52.036;5.332;2022-09-09T02:28:03;22.23;;;7.50;;
69532;SDS011;56729;52.036;5.332;2022-09-09T02:29:11;20.77;;;7.22;;
69532;SDS011;56729;52.036;5.332;2022-09-09T02:30:16;19.40;;;6.53;;
69532;SDS011;56729;52.036;5.332;2022-09-09T02:31:25;28.67;;;6.70;;
69532;SDS011;56729;52.036;5.332;2022-09-09T02:32:33;24.23;;;6.93;;
69532;SDS011;56729;52.036;5.332;2022-09-09T02:33:42;41.72;;;8.07;;
69532;SDS011;56729;52.036;5.332;2022-09-09T02:34:47;34.38;;;7.88;;
69532;SDS011;56729;52.036;5.332;2022-09-09T02:35:59;26.67;;;7.70;;
69532;SDS011;56729;52.036;5.332;2022-09-09T02:37:06;19.25;;;7.32;;
69532;SDS011;56729;52.036;5.332;2022-09-09T02:38:12;17.80;;;6.93;;
69532;SDS011;56729;52.036;5.332;2022-09-09T02:39:25;24.83;;;7.40;;
69532;SDS011;56729;52.036;5.332;2022-09-09T02:40:27;19.25;;;6.45;;
69532;SDS011;56729;52.036;5.332;2022-09-09T02:41:34;13.30;;;6.72;;
69532;SDS011;56729;52.036;5.332;2022-09-09T02:42:42;26.23;;;6.97;;
69532;SDS011;56729;52.036;5.332;2022-09-09T02:43:46;12.15;;;5.85;;
69532;SDS011;56729;52.036;5.332;2022-09-09T02:44:49;21.10;;;6.28;;
69532;SDS011;56729;52.036;5.332;2022-09-09T02:47:24;18.38;;;6.20;;
69532;SDS011;56729;52.036;5.332;2022-09-09T02:52:08;18.15;;;6.53;;
69532;SDS011;56729;52.036;5.332;2022-09-09T02:53:20;18.30;;;6.72;;
69532;SDS011;56729;52.036;5.332;2022-09-09T02:54:37;14.37;;;5.40;;
69532;SDS011;56729;52.036;5.332;2022-09-09T02:55:51;13.43;;;5.85;;
69532;SDS011;56729;52.036;5.332;2022-09-09T02:57:21;9.27;;;5.15;;
69532;SDS011;56729;52.036;5.332;2022-09-09T02:58:25;21.77;;;6.25;;
69532;SDS011;56729;52.036;5.332;2022-09-09T02:59:35;19.77;;;5.40;;
69532;SDS011;56729;52.036;5.332;2022-09-09T03:00:39;11.25;;;5.80;;
69532;SDS011;56729;52.036;5.332;2022-09-09T03:01:41;25.75;;;5.78;;
69532;SDS011;56729;52.036;5.332;2022-09-09T03:02:45;13.55;;;6.43;;
69532;SDS011;56729;52.036;5.332;2022-09-09T03:03:47;17.42;;;5.63;;
69532;SDS011;56729;52.036;5.332;2022-09-09T03:04:50;21.15;;;6.03;;
69532;SDS011;56729;52.036;5.332;2022-09-09T03:05:53;22.93;;;6.43;;
69532;SDS011;56729;52.036;5.332;2022-09-09T03:06:55;15.68;;;6.28;;
69532;SDS011;56729;52.036;5.332;2022-09-09T03:07:58;18.98;;;6.25;;
69532;SDS011;56729;52.036;5.332;2022-09-09T03:09:00;23.05;;;6.80;;
69532;SDS011;56729;52.036;5.332;2022-09-09T03:10:04;29.98;;;7.15;;
69532;SDS011;56729;52.036;5.332;2022-09-09T03:11:06;32.38;;;7.40;;
69532;SDS011;56729;52.036;5.332;2022-09-09T03:12:11;24.83;;;6.10;;
69532;SDS011;56729;52.036;5.332;2022-09-09T03:13:14;17.55;;;6.20;;
69532;SDS011;56729;52.036;5.332;2022-09-09T03:14:17;26.95;;;6.70;;
69532;SDS011;56729;52.036;5.332;2022-09-09T03:15:22;17.38;;;6.53;;
69532;SDS011;56729;52.036;5.332;2022-09-09T03:16:24;13.43;;;6.33;;
69532;SDS011;56729;52.036;5.332;2022-09-09T03:17:28;22.58;;;6.57;;
69532;SDS011;56729;52.036;5.332;2022-09-09T03:18:31;22.92;;;6.28;;
69532;SDS011;56729;52.036;5.332;2022-09-09T03:19:33;13.80;;;6.60;;
69532;SDS011;56729;52.036;5.332;2022-09-09T03:20:37;15.75;;;6.80;;
69532;SDS011;56729;52.036;5.332;2022-09-09T03:21:38;13.25;;;6.35;;
69532;SDS011;56729;52.036;5.332;2022-09-09T03:22:40;13.80;;;5.90;;
69532;SDS011;56729;52.036;5.332;2022-09-09T03:23:42;15.55;;;6.88;;
69532;SDS011;56729;52.036;5.332;2022-09-09T03:24:45;17.50;;;6.18;;
69532;SDS011;56729;52.036;5.332;2022-09-09T03:25:51;18.20;;;6.50;;
69532;SDS011;56729;52.036;5.332;2022-09-09T03:27:00;13.97;;;5.93;;
69532;SDS011;56729;52.036;5.332;2022-09-09T03:28:02;18.08;;;6.78;;
69532;SDS011;56729;52.036;5.332;2022-09-09T03:29:04;81.85;;;8.48;;
69532;SDS011;56729;52.036;5.332;2022-09-09T03:30:08;26.70;;;7.63;;
69532;SDS011;56729;52.036;5.332;2022-09-09T03:31:10;22.13;;;7.80;;
69532;SDS011;56729;52.036;5.332;2022-09-09T03:32:14;33.25;;;8.25;;
69532;SDS011;56729;52.036;5.332;2022-09-09T03:33:18;17.80;;;6.78;;
69532;SDS011;56729;52.036;5.332;2022-09-09T03:34:20;22.27;;;6.97;;
69532;SDS011;56729;52.036;5.332;2022-09-09T03:35:22;27.08;;;7.57;;
69532;SDS011;56729;52.036;5.332;2022-09-09T03:36:25;20.95;;;6.90;;
69532;SDS011;56729;52.036;5.332;2022-09-09T03:37:28;12.73;;;6.83;;
69532;SDS011;56729;52.036;5.332;2022-09-09T03:38:30;17.85;;;7.70;;
69532;SDS011;56729;52.036;5.332;2022-09-09T03:39:33;15.52;;;7.20;;
69532;SDS011;56729;52.036;5.332;2022-09-09T03:40:34;12.73;;;7.00;;
69532;SDS011;56729;52.036;5.332;2022-09-09T03:41:37;17.95;;;7.28;;
69532;SDS011;56729;52.036;5.332;2022-09-09T03:42:40;20.60;;;7.55;;
69532;SDS011;56729;52.036;5.332;2022-09-09T03:43:42;15.45;;;7.20;;
69532;SDS011;56729;52.036;5.332;2022-09-09T03:44:44;25.00;;;8.85;;
69532;SDS011;56729;52.036;5.332;2022-09-09T03:45:53;18.80;;;6.97;;
69532;SDS011;56729;52.036;5.332;2022-09-09T03:46:59;18.90;;;7.70;;
69532;SDS011;56729;52.036;5.332;2022-09-09T03:48:02;30.60;;;8.73;;
69532;SDS011;56729;52.036;5.332;2022-09-09T03:49:04;24.08;;;9.00;;
69532;SDS011;56729;52.036;5.332;2022-09-09T03:50:07;26.52;;;7.90;;
69532;SDS011;56729;52.036;5.332;2022-09-09T03:51:16;32.30;;;8.40;;
69532;SDS011;56729;52.036;5.332;2022-09-09T03:52:18;34.00;;;8.35;;
69532;SDS011;56729;52.036;5.332;2022-09-09T03:53:25;19.98;;;7.78;;
69532;SDS011;56729;52.036;5.332;2022-09-09T03:54:27;15.88;;;7.03;;
69532;SDS011;56729;52.036;5.332;2022-09-09T03:55:30;19.55;;;7.57;;
69532;SDS011;56729;52.036;5.332;2022-09-09T03:56:32;18.48;;;7.05;;
69532;SDS011;56729;52.036;5.332;2022-09-09T03:57:34;25.73;;;8.43;;
69532;SDS011;56729;52.036;5.332;2022-09-09T03:58:40;25.63;;;7.90;;
69532;SDS011;56729;52.036;5.332;2022-09-09T03:59:44;18.92;;;7.63;;
69532;SDS011;56729;52.036;5.332;2022-09-09T04:01:05;27.13;;;8.38;;
69532;SDS011;56729;52.036;5.332;2022-09-09T04:02:12;17.50;;;8.30;;
69532;SDS011;56729;52.036;5.332;2022-09-09T04:03:14;27.27;;;8.55;;
69532;SDS011;56729;52.036;5.332;2022-09-09T04:04:16;20.48;;;8.05;;
69532;SDS011;56729;52.036;5.332;2022-09-09T04:05:18;20.13;;;8.45;;
69532;SDS011;56729;52.036;5.332;2022-09-09T04:06:22;16.55;;;8.45;;
69532;SDS011;56729;52.036;5.332;2022-09-09T04:07:24;22.27;;;8.52;;
69532;SDS011;56729;52.036;5.332;2022-09-09T04:08:30;25.27;;;8.48;;
69532;SDS011;56729;52.036;5.332;2022-09-09T04:09:35;22.10;;;8.73;;
69532;SDS011;56729;52.036;5.332;2022-09-09T04:10:37;14.80;;;7.80;;
69532;SDS011;56729;52.036;5.332;2022-09-09T04:11:39;29.63;;;8.65;;
69532;SDS011;56729;52.036;5.332;2022-09-09T04:12:41;20.98;;;8.05;;
69532;SDS011;56729;52.036;5.332;2022-09-09T04:13:49;22.70;;;9.18;;
69532;SDS011;56729;52.036;5.332;2022-09-09T04:14:52;14.73;;;7.80;;
69532;SDS011;56729;52.036;5.332;2022-09-09T04:15:55;18.77;;;8.45;;
69532;SDS011;56729;52.036;5.332;2022-09-09T04:16:58;13.63;;;7.65;;
69532;SDS011;56729;52.036;5.332;2022-09-09T04:18:01;26.52;;;9.32;;
69532;SDS011;56729;52.036;5.332;2022-09-09T04:19:03;32.28;;;9.52;;
69532;SDS011;56729;52.036;5.332;2022-09-09T04:20:05;25.83;;;8.37;;
69532;SDS011;56729;52.036;5.332;2022-09-09T04:21:12;31.48;;;8.93;;
69532;SDS011;56729;52.036;5.332;2022-09-09T04:22:14;33.75;;;9.43;;
69532;SDS011;56729;52.036;5.332;2022-09-09T04:23:17;18.45;;;8.88;;
69532;SDS011;56729;52.036;5.332;2022-09-09T04:24:22;22.50;;;8.63;;
69532;SDS011;56729;52.036;5.332;2022-09-09T04:25:26;17.90;;;8.85;;
69532;SDS011;56729;52.036;5.332;2022-09-09T04:26:28;24.35;;;8.93;;
69532;SDS011;56729;52.036;5.332;2022-09-09T04:27:29;31.75;;;10.43;;
69532;SDS011;56729;52.036;5.332;2022-09-09T04:28:32;16.73;;;9.15;;
69532;SDS011;56729;52.036;5.332;2022-09-09T04:29:36;37.17;;;11.32;;
69532;SDS011;56729;52.036;5.332;2022-09-09T04:30:37;20.10;;;9.00;;
69532;SDS011;56729;52.036;5.332;2022-09-09T04:31:41;36.08;;;10.00;;
69532;SDS011;56729;52.036;5.332;2022-09-09T04:32:43;19.20;;;9.10;;
69532;SDS011;56729;52.036;5.332;2022-09-09T04:33:46;23.50;;;9.38;;
69532;SDS011;56729;52.036;5.332;2022-09-09T04:34:48;20.95;;;8.48;;
69532;SDS011;56729;52.036;5.332;2022-09-09T04:35:50;23.17;;;9.05;;
69532;SDS011;56729;52.036;5.332;2022-09-09T04:36:56;30.13;;;9.02;;
69532;SDS011;56729;52.036;5.332;2022-09-09T04:37:59;22.75;;;9.57;;
69532;SDS011;56729;52.036;5.332;2022-09-09T04:39:01;24.50;;;9.48;;
69532;SDS011;56729;52.036;5.332;2022-09-09T04:40:04;28.77;;;9.30;;
69532;SDS011;56729;52.036;5.332;2022-09-09T04:41:07;16.47;;;8.80;;
69532;SDS011;56729;52.036;5.332;2022-09-09T04:42:11;30.27;;;10.15;;
69532;SDS011;56729;52.036;5.332;2022-09-09T04:43:13;19.48;;;8.45;;
69532;SDS011;56729;52.036;5.332;2022-09-09T04:44:18;18.50;;;8.38;;
69532;SDS011;56729;52.036;5.332;2022-09-09T04:45:20;30.42;;;10.13;;
69532;SDS011;56729;52.036;5.332;2022-09-09T04:46:22;15.50;;;8.73;;
69532;SDS011;56729;52.036;5.332;2022-09-09T04:47:25;19.50;;;8.73;;
69532;SDS011;56729;52.036;5.332;2022-09-09T04:48:27;21.58;;;9.18;;
69532;SDS011;56729;52.036;5.332;2022-09-09T04:49:29;31.58;;;9.90;;
69532;SDS011;56729;52.036;5.332;2022-09-09T04:50:33;34.33;;;10.23;;
69532;SDS011;56729;52.036;5.332;2022-09-09T04:51:35;29.27;;;9.67;;
69532;SDS011;56729;52.036;5.332;2022-09-09T04:52:37;44.38;;;11.60;;
69532;SDS011;56729;52.036;5.332;2022-09-09T04:53:40;29.10;;;9.63;;
69532;SDS011;56729;52.036;5.332;2022-09-09T04:54:42;49.42;;;11.20;;
69532;SDS011;56729;52.036;5.332;2022-09-09T04:55:44;30.77;;;9.80;;
69532;SDS011;56729;52.036;5.332;2022-09-09T04:56:46;227.75;;;14.27;;
69532;SDS011;56729;52.036;5.332;2022-09-09T04:57:48;32.13;;;9.57;;
69532;SDS011;56729;52.036;5.332;2022-09-09T04:58:50;17.42;;;8.63;;
69532;SDS011;56729;52.036;5.332;2022-09-09T04:59:55;24.67;;;8.88;;
69532;SDS011;56729;52.036;5.332;2022-09-09T05:01:04;27.23;;;10.20;;
69532;SDS011;56729;52.036;5.332;2022-09-09T05:02:07;29.80;;;8.80;;
69532;SDS011;56729;52.036;5.332;2022-09-09T05:03:09;19.75;;;8.25;;
69532;SDS011;56729;52.036;5.332;2022-09-09T05:04:11;26.60;;;9.23;;
69532;SDS011;56729;52.036;5.332;2022-09-09T05:05:13;34.20;;;9.95;;
69532;SDS011;56729;52.036;5.332;2022-09-09T05:06:16;26.13;;;8.65;;
69532;SDS011;56729;52.036;5.332;2022-09-09T05:07:22;39.85;;;10.27;;
69532;SDS011;56729;52.036;5.332;2022-09-09T05:08:24;32.60;;;9.13;;
69532;SDS011;56729;52.036;5.332;2022-09-09T05:09:27;45.00;;;10.70;;
69532;SDS011;56729;52.036;5.332;2022-09-09T05:10:30;46.88;;;10.75;;
69532;SDS011;56729;52.036;5.332;2022-09-09T05:11:33;30.60;;;8.95;;
69532;SDS011;56729;52.036;5.332;2022-09-09T05:12:51;18.17;;;7.97;;
69532;SDS011;56729;52.036;5.332;2022-09-09T05:13:54;19.42;;;7.90;;
69532;SDS011;56729;52.036;5.332;2022-09-09T05:14:57;48.15;;;10.77;;
69532;SDS011;56729;52.036;5.332;2022-09-09T05:16:00;49.28;;;9.68;;
69532;SDS011;56729;52.036;5.332;2022-09-09T05:17:02;25.50;;;8.90;;
69532;SDS011;56729;52.036;5.332;2022-09-09T05:18:04;41.53;;;9.95;;
69532;SDS011;56729;52.036;5.332;2022-09-09T05:19:06;24.88;;;8.35;;
69532;SDS011;56729;52.036;5.332;2022-09-09T05:20:21;25.65;;;8.25;;
69532;SDS011;56729;52.036;5.332;2022-09-09T05:21:23;38.03;;;9.13;;
69532;SDS011;56729;52.036;5.332;2022-09-09T05:22:29;53.83;;;9.43;;
69532;SDS011;56729;52.036;5.332;2022-09-09T05:23:32;25.90;;;8.13;;
69532;SDS011;56729;52.036;5.332;2022-09-09T05:24:35;35.42;;;9.32;;
69532;SDS011;56729;52.036;5.332;2022-09-09T05:25:38;13.73;;;6.95;;
69532;SDS011;56729;52.036;5.332;2022-09-09T05:26:41;19.60;;;7.35;;
69532;SDS011;56729;52.036;5.332;2022-09-09T05:27:44;39.28;;;8.48;;
69532;SDS011;56729;52.036;5.332;2022-09-09T05:28:46;36.03;;;8.65;;
69532;SDS011;56729;52.036;5.332;2022-09-09T05:29:48;39.88;;;9.32;;
69532;SDS011;56729;52.036;5.332;2022-09-09T05:31:59;26.83;;;7.45;;
69532;SDS011;56729;52.036;5.332;2022-09-09T05:33:01;21.13;;;7.72;;
69532;SDS011;56729;52.036;5.332;2022-09-09T05:34:03;24.90;;;7.10;;
69532;SDS011;56729;52.036;5.332;2022-09-09T05:35:05;19.63;;;7.03;;
69532;SDS011;56729;52.036;5.332;2022-09-09T05:36:08;24.20;;;6.85;;
69532;SDS011;56729;52.036;5.332;2022-09-09T05:37:23;38.15;;;7.20;;
69532;SDS011;56729;52.036;5.332;2022-09-09T05:38:25;31.33;;;7.40;;
69532;SDS011;56729;52.036;5.332;2022-09-09T05:39:29;42.28;;;8.65;;
69532;SDS011;56729;52.036;5.332;2022-09-09T05:40:31;25.45;;;7.25;;
69532;SDS011;56729;52.036;5.332;2022-09-09T05:41:33;34.33;;;8.15;;
69532;SDS011;56729;52.036;5.332;2022-09-09T05:42:37;32.20;;;7.88;;
69532;SDS011;56729;52.036;5.332;2022-09-09T05:43:40;21.00;;;6.88;;
69532;SDS011;56729;52.036;5.332;2022-09-09T05:44:46;20.33;;;6.87;;
69532;SDS011;56729;52.036;5.332;2022-09-09T05:45:48;42.20;;;8.82;;
69532;SDS011;56729;52.036;5.332;2022-09-09T05:47:03;17.52;;;6.63;;
69532;SDS011;56729;52.036;5.332;2022-09-09T05:48:05;17.83;;;7.10;;
69532;SDS011;56729;52.036;5.332;2022-09-09T05:49:08;21.00;;;6.50;;
69532;SDS011;56729;52.036;5.332;2022-09-09T05:50:12;16.38;;;6.15;;
69532;SDS011;56729;52.036;5.332;2022-09-09T05:51:20;32.55;;;7.72;;
69532;SDS011;56729;52.036;5.332;2022-09-09T05:52:23;22.40;;;6.47;;
69532;SDS011;56729;52.036;5.332;2022-09-09T05:53:28;31.63;;;6.78;;
69532;SDS011;56729;52.036;5.332;2022-09-09T05:54:35;18.48;;;6.60;;
69532;SDS011;56729;52.036;5.332;2022-09-09T05:55:38;25.43;;;6.83;;
69532;SDS011;56729;52.036;5.332;2022-09-09T05:56:40;14.20;;;6.32;;
69532;SDS011;56729;52.036;5.332;2022-09-09T05:57:47;17.42;;;5.57;;
69532;SDS011;56729;52.036;5.332;2022-09-09T05:58:50;21.58;;;6.15;;
69532;SDS011;56729;52.036;5.332;2022-09-09T05:59:55;29.33;;;7.45;;
69532;SDS011;56729;52.036;5.332;2022-09-09T06:01:00;25.10;;;6.80;;
69532;SDS011;56729;52.036;5.332;2022-09-09T06:02:09;21.83;;;6.43;;
69532;SDS011;56729;52.036;5.332;2022-09-09T06:03:11;21.75;;;6.85;;
69532;SDS011;56729;52.036;5.332;2022-09-09T06:04:14;31.17;;;8.55;;
69532;SDS011;56729;52.036;5.332;2022-09-09T06:05:16;23.23;;;6.60;;
69532;SDS011;56729;52.036;5.332;2022-09-09T06:06:19;25.83;;;6.60;;
69532;SDS011;56729;52.036;5.332;2022-09-09T06:07:22;48.70;;;7.55;;
69532;SDS011;56729;52.036;5.332;2022-09-09T06:08:24;22.52;;;6.22;;
69532;SDS011;56729;52.036;5.332;2022-09-09T06:09:26;37.53;;;6.72;;
69532;SDS011;56729;52.036;5.332;2022-09-09T06:10:29;26.55;;;6.65;;
69532;SDS011;56729;52.036;5.332;2022-09-09T06:11:31;24.38;;;6.75;;
69532;SDS011;56729;52.036;5.332;2022-09-09T06:12:37;35.10;;;7.43;;
69532;SDS011;56729;52.036;5.332;2022-09-09T06:13:40;26.42;;;6.25;;
69532;SDS011;56729;52.036;5.332;2022-09-09T06:14:43;28.40;;;6.55;;
69532;SDS011;56729;52.036;5.332;2022-09-09T06:15:51;15.77;;;6.18;;
69532;SDS011;56729;52.036;5.332;2022-09-09T06:16:53;28.43;;;6.90;;
69532;SDS011;56729;52.036;5.332;2022-09-09T06:17:57;22.70;;;6.10;;
69532;SDS011;56729;52.036;5.332;2022-09-09T06:18:59;31.13;;;7.10;;
69532;SDS011;56729;52.036;5.332;2022-09-09T06:20:03;28.05;;;6.18;;
69532;SDS011;56729;52.036;5.332;2022-09-09T06:21:20;25.05;;;6.20;;
69532;SDS011;56729;52.036;5.332;2022-09-09T06:22:24;20.65;;;5.75;;
69532;SDS011;56729;52.036;5.332;2022-09-09T06:23:26;17.23;;;6.30;;
69532;SDS011;56729;52.036;5.332;2022-09-09T06:24:29;29.05;;;6.50;;
69532;SDS011;56729;52.036;5.332;2022-09-09T06:25:32;34.83;;;7.72;;
69532;SDS011;56729;52.036;5.332;2022-09-09T06:26:36;17.67;;;5.15;;
69532;SDS011;56729;52.036;5.332;2022-09-09T06:27:48;18.30;;;5.80;;
69532;SDS011;56729;52.036;5.332;2022-09-09T06:28:51;33.28;;;6.28;;
69532;SDS011;56729;52.036;5.332;2022-09-09T06:29:54;19.98;;;5.47;;
69532;SDS011;56729;52.036;5.332;2022-09-09T06:30:57;38.75;;;5.55;;
69532;SDS011;56729;52.036;5.332;2022-09-09T06:32:02;24.17;;;6.07;;
69532;SDS011;56729;52.036;5.332;2022-09-09T06:33:05;42.17;;;7.70;;
69532;SDS011;56729;52.036;5.332;2022-09-09T06:34:08;34.55;;;5.80;;
69532;SDS011;56729;52.036;5.332;2022-09-09T06:35:14;14.95;;;4.47;;
69532;SDS011;56729;52.036;5.332;2022-09-09T06:36:20;25.13;;;5.78;;
69532;SDS011;56729;52.036;5.332;2022-09-09T06:37:24;19.33;;;4.50;;
69532;SDS011;56729;52.036;5.332;2022-09-09T06:38:28;27.30;;;4.93;;
69532;SDS011;56729;52.036;5.332;2022-09-09T06:39:30;27.10;;;5.20;;
69532;SDS011;56729;52.036;5.332;2022-09-09T06:40:32;19.80;;;5.15;;
69532;SDS011;56729;52.036;5.332;2022-09-09T06:41:34;28.45;;;5.40;;
69532;SDS011;56729;52.036;5.332;2022-09-09T06:42:37;17.17;;;4.38;;
69532;SDS011;56729;52.036;5.332;2022-09-09T06:43:55;24.85;;;6.05;;
69532;SDS011;56729;52.036;5.332;2022-09-09T06:45:05;21.42;;;4.63;;
69532;SDS011;56729;52.036;5.332;2022-09-09T06:46:19;18.73;;;4.70;;
69532;SDS011;56729;52.036;5.332;2022-09-09T06:47:24;20.45;;;4.45;;
69532;SDS011;56729;52.036;5.332;2022-09-09T06:48:26;20.52;;;4.78;;
69532;SDS011;56729;52.036;5.332;2022-09-09T06:49:32;30.13;;;5.30;;
69532;SDS011;56729;52.036;5.332;2022-09-09T06:50:35;20.50;;;4.10;;
69532;SDS011;56729;52.036;5.332;2022-09-09T06:51:37;31.02;;;4.55;;
69532;SDS011;56729;52.036;5.332;2022-09-09T06:52:46;28.77;;;4.45;;
69532;SDS011;56729;52.036;5.332;2022-09-09T06:53:55;24.33;;;5.30;;
69532;SDS011;56729;52.036;5.332;2022-09-09T06:54:59;34.65;;;5.18;;
69532;SDS011;56729;52.036;5.332;2022-09-09T06:56:02;26.45;;;4.95;;
69532;SDS011;56729;52.036;5.332;2022-09-09T06:57:20;23.40;;;4.55;;
69532;SDS011;56729;52.036;5.332;2022-09-09T06:58:43;23.58;;;4.55;;
69532;SDS011;56729;52.036;5.332;2022-09-09T06:59:52;29.10;;;4.90;;
69532;SDS011;56729;52.036;5.332;2022-09-09T07:01:04;28.73;;;5.03;;
69532;SDS011;56729;52.036;5.332;2022-09-09T07:02:08;25.27;;;5.75;;
69532;SDS011;56729;52.036;5.332;2022-09-09T07:03:10;25.48;;;4.75;;
69532;SDS011;56729;52.036;5.332;2022-09-09T07:04:12;23.73;;;4.88;;
69532;SDS011;56729;52.036;5.332;2022-09-09T07:05:17;24.58;;;4.90;;
69532;SDS011;56729;52.036;5.332;2022-09-09T07:06:21;20.95;;;4.50;;
69532;SDS011;56729;52.036;5.332;2022-09-09T07:07:25;20.77;;;5.13;;
69532;SDS011;56729;52.036;5.332;2022-09-09T07:08:28;29.35;;;4.68;;
69532;SDS011;56729;52.036;5.332;2022-09-09T07:09:30;33.88;;;4.85;;
69532;SDS011;56729;52.036;5.332;2022-09-09T07:10:33;26.33;;;5.55;;
69532;SDS011;56729;52.036;5.332;2022-09-09T07:11:42;30.03;;;5.17;;